createdAt,value
2022-09-30T00:00:34.782Z,94550.7
2022-09-30T00:01:37.626Z,94548.1
2022-09-30T00:02:39.788Z,94550.9
2022-09-30T00:03:42.319Z,94548.2
2022-09-30T00:04:44.784Z,94549.7
2022-09-30T00:05:47.282Z,94548.2
2022-09-30T00:06:49.467Z,94551.6
2022-09-30T00:07:51.680Z,94546.1
2022-09-30T00:08:53.868Z,94548.8
2022-09-30T00:09:56.475Z,94545.7
2022-09-30T00:10:58.671Z,94549.1
2022-09-30T00:12:01.166Z,94547.4
2022-09-30T00:13:03.666Z,94548
2022-09-30T00:14:06.159Z,94547
2022-09-30T00:15:08.359Z,94555.4
2022-09-30T00:16:10.880Z,94553
2022-09-30T00:17:13.175Z,94558.4
2022-09-30T00:18:15.373Z,94563.4
2022-09-30T00:19:17.576Z,94562.2
2022-09-30T00:20:20.050Z,94566.5
2022-09-30T00:21:22.619Z,94566
2022-09-30T00:22:25.095Z,94563.9
2022-09-30T00:23:27.294Z,94560.8
2022-09-30T00:24:29.489Z,94564.3
2022-09-30T00:25:31.979Z,94564.7
2022-09-30T00:26:34.460Z,94569.1
2022-09-30T00:27:36.928Z,94567.8
2022-09-30T00:28:39.150Z,94564.8
2022-09-30T00:29:41.621Z,94567.9
2022-09-30T00:30:43.845Z,94565.5
2022-09-30T00:31:46.832Z,94564.7
2022-09-30T00:32:49.210Z,94566.5
2022-09-30T00:33:51.130Z,94564.5
2022-09-30T00:34:53.324Z,94556.3
2022-09-30T00:35:55.508Z,94558.4
2022-09-30T00:36:57.742Z,94552.7
2022-09-30T00:38:00.240Z,94553.9
2022-09-30T00:39:01.861Z,94557.7
2022-09-30T00:40:04.342Z,94549.5
2022-09-30T00:41:06.271Z,94551.6
2022-09-30T00:42:08.486Z,94550
2022-09-30T00:43:10.664Z,94550.2
2022-09-30T00:44:12.887Z,94549.9
2022-09-30T00:45:15.358Z,94552.1
2022-09-30T00:46:18.128Z,94551.1
2022-09-30T00:47:20.687Z,94550.9
2022-09-30T00:48:23.159Z,94551.1
2022-09-30T00:49:25.635Z,94552.4
2022-09-30T00:50:28.111Z,94556.5
2022-09-30T00:51:30.306Z,94555.4
2022-09-30T00:52:32.839Z,94557
2022-09-30T00:53:35.329Z,94557.3
2022-09-30T00:54:37.629Z,94559.3
2022-09-30T00:55:40.106Z,94559.3
2022-09-30T00:56:42.055Z,94558.7
2022-09-30T00:57:44.688Z,94563.5
2022-09-30T00:58:47.155Z,94564.3
2022-09-30T00:59:49.379Z,94566.1
2022-09-30T01:00:52.235Z,94566.6
2022-09-30T01:01:55.174Z,94568.8
2022-09-30T01:02:57.453Z,94575.1
2022-09-30T01:03:59.924Z,94570.4
2022-09-30T01:05:02.123Z,94574.7
2022-09-30T01:06:04.587Z,94576.4
2022-09-30T01:07:07.069Z,94578.6
2022-09-30T01:08:09.288Z,94576.9
2022-09-30T01:09:12.025Z,94576.7
2022-09-30T01:10:14.558Z,94582.1
2022-09-30T01:11:16.759Z,94582.7
2022-09-30T01:12:18.995Z,94586.4
2022-09-30T01:13:21.208Z,94584.4
2022-09-30T01:14:23.399Z,94589.9
2022-09-30T01:15:25.334Z,94588.7
2022-09-30T01:16:28.150Z,94591.1
2022-09-30T01:17:30.492Z,94586
2022-09-30T01:18:32.703Z,94589.4
2022-09-30T01:19:35.167Z,94585.9
2022-09-30T01:20:37.643Z,94587
2022-09-30T01:21:40.106Z,94587.1
2022-09-30T01:22:43.919Z,94586
2022-09-30T01:23:45.865Z,94585.7
2022-09-30T01:24:48.058Z,94587.8
2022-09-30T01:25:50.530Z,94587.5
2022-09-30T01:26:52.728Z,94592.2
2022-09-30T01:27:55.236Z,94594.5
2022-09-30T01:28:57.761Z,94595.7
2022-09-30T01:29:59.945Z,94593.4
2022-09-30T01:31:02.777Z,94598.8
2022-09-30T01:32:05.286Z,94596.2
2022-09-30T01:33:07.471Z,94595.8
2022-09-30T01:34:09.931Z,94596
2022-09-30T01:35:12.407Z,94596.5
2022-09-30T01:36:14.598Z,94601.3
2022-09-30T01:37:16.799Z,94599.6
2022-09-30T01:38:19.269Z,94606.4
2022-09-30T01:39:22.327Z,94606.6
2022-09-30T01:40:25.082Z,94607.5
2022-09-30T01:41:27.560Z,94606.1
2022-09-30T01:42:30.030Z,94609.2
2022-09-30T01:43:32.528Z,94609.8
2022-09-30T01:44:34.759Z,94604.6
2022-09-30T01:45:37.238Z,94610.5
2022-09-30T01:46:39.643Z,94613.9
2022-09-30T01:47:42.269Z,94614.1
2022-09-30T01:48:44.185Z,94614.6
2022-09-30T01:49:46.662Z,94619.2
2022-09-30T01:50:49.125Z,94619.1
2022-09-30T01:51:51.608Z,94618.9
2022-09-30T01:52:53.509Z,94617.7
2022-09-30T01:53:55.988Z,94613.6
2022-09-30T01:54:58.493Z,94612.4
2022-09-30T01:56:01.039Z,94613.2
2022-09-30T01:57:02.945Z,94613.3
2022-09-30T01:58:05.146Z,94613.1
2022-09-30T01:59:07.630Z,94612.4
2022-09-30T02:00:10.137Z,94612.9
2022-09-30T02:01:12.525Z,94615.5
2022-09-30T02:02:15.058Z,94614.7
2022-09-30T02:03:17.618Z,94614.4
2022-09-30T02:04:20.093Z,94610.5
2022-09-30T02:05:22.586Z,94613.8
2022-09-30T02:06:25.062Z,94616.5
2022-09-30T02:07:26.950Z,94617.8
2022-09-30T02:08:29.440Z,94616.2
2022-09-30T02:09:32.122Z,94612
2022-09-30T02:10:34.447Z,94616.9
2022-09-30T02:11:37.006Z,94610.8
2022-09-30T02:12:39.191Z,94611.4
2022-09-30T02:13:41.666Z,94606.5
2022-09-30T02:14:43.297Z,94603.2
2022-09-30T02:15:45.508Z,94604.3
2022-09-30T02:16:47.424Z,94603.4
2022-09-30T02:17:49.908Z,94600.8
2022-09-30T02:18:52.375Z,94599.6
2022-09-30T02:19:54.578Z,94599
2022-09-30T02:20:56.489Z,94595.9
2022-09-30T02:21:58.681Z,94592.8
2022-09-30T02:23:00.855Z,94592.1
2022-09-30T02:24:03.059Z,94595
2022-09-30T02:25:05.232Z,94596
2022-09-30T02:26:07.538Z,94597.3
2022-09-30T02:27:10.014Z,94598.5
2022-09-30T02:28:12.491Z,94598.8
2022-09-30T02:29:15.020Z,94597.7
2022-09-30T02:30:17.693Z,94600.2
2022-09-30T02:31:20.445Z,94596.7
2022-09-30T02:32:23.005Z,94596.4
2022-09-30T02:33:25.498Z,94596.8
2022-09-30T02:34:27.700Z,94597
2022-09-30T02:35:30.163Z,94597.5
2022-09-30T02:36:32.647Z,94596.8
2022-09-30T02:37:35.127Z,94598.7
2022-09-30T02:38:37.663Z,94598.7
2022-09-30T02:39:39.841Z,94595.2
2022-09-30T02:40:42.308Z,94591.8
2022-09-30T02:41:44.262Z,94594.2
2022-09-30T02:42:46.774Z,94598.9
2022-09-30T02:43:49.250Z,94602.5
2022-09-30T02:44:50.900Z,94601.7
2022-09-30T02:45:53.386Z,94601.9
2022-09-30T02:46:56.260Z,94604.6
2022-09-30T02:47:58.551Z,94605.3
2022-09-30T02:49:00.771Z,94606.6
2022-09-30T02:50:02.410Z,94610.6
2022-09-30T02:51:04.599Z,94614.4
2022-09-30T02:52:07.077Z,94617.2
2022-09-30T02:53:09.276Z,94619.3
2022-09-30T02:54:11.744Z,94620
2022-09-30T02:55:14.237Z,94620.3
2022-09-30T02:56:16.707Z,94622.4
2022-09-30T02:57:19.214Z,94624.1
2022-09-30T02:58:21.417Z,94622.4
2022-09-30T02:59:24.153Z,94624.9
2022-09-30T03:00:26.156Z,94629.6
2022-09-30T03:01:28.352Z,94629.1
2022-09-30T03:02:30.678Z,94637.9
2022-09-30T03:03:32.584Z,94637
2022-09-30T03:04:35.080Z,94635.6
2022-09-30T03:05:37.273Z,94638.4
2022-09-30T03:06:39.740Z,94632.7
2022-09-30T03:07:42.222Z,94631.8
2022-09-30T03:08:44.428Z,94626.4
2022-09-30T03:09:47.207Z,94633.7
2022-09-30T03:10:49.554Z,94629
2022-09-30T03:11:51.747Z,94631.4
2022-09-30T03:12:54.259Z,94633.1
2022-09-30T03:13:56.860Z,94635.3
2022-09-30T03:14:59.058Z,94638
2022-09-30T03:16:01.833Z,94638.1
2022-09-30T03:17:04.134Z,94640.4
2022-09-30T03:18:06.335Z,94645.7
2022-09-30T03:19:08.812Z,94649.1
2022-09-30T03:20:10.450Z,94643.6
2022-09-30T03:21:12.944Z,94646
2022-09-30T03:22:15.133Z,94645.4
2022-09-30T03:23:17.603Z,94647.9
2022-09-30T03:24:19.806Z,94644.7
2022-09-30T03:25:21.979Z,94651.4
2022-09-30T03:26:24.462Z,94647
2022-09-30T03:27:26.975Z,94650.4
2022-09-30T03:28:29.607Z,94651.7
2022-09-30T03:29:32.091Z,94655.2
2022-09-30T03:30:34.566Z,94657
2022-09-30T03:31:37.321Z,94657.5
2022-09-30T03:32:39.682Z,94666.4
2022-09-30T03:33:41.905Z,94663.9
2022-09-30T03:34:44.365Z,94668.7
2022-09-30T03:35:46.562Z,94672.8
2022-09-30T03:36:48.481Z,94672.6
2022-09-30T03:37:50.691Z,94675.1
2022-09-30T03:38:52.881Z,94676.3
2022-09-30T03:39:55.364Z,94675.5
2022-09-30T03:40:57.564Z,94674
2022-09-30T03:42:00.044Z,94673.2
2022-09-30T03:43:02.520Z,94677.3
2022-09-30T03:44:04.750Z,94676.6
2022-09-30T03:45:06.976Z,94673
2022-09-30T03:46:09.454Z,94677.4
2022-09-30T03:47:12.044Z,94674.4
2022-09-30T03:48:14.532Z,94674
2022-09-30T03:49:17.019Z,94674.7
2022-09-30T03:50:19.496Z,94671.7
2022-09-30T03:51:21.715Z,94671.4
2022-09-30T03:52:24.186Z,94675.2
2022-09-30T03:53:26.379Z,94673.6
2022-09-30T03:54:28.586Z,94671.1
2022-09-30T03:55:30.498Z,94668.8
2022-09-30T03:56:32.722Z,94669.5
2022-09-30T03:57:35.199Z,94671.7
2022-09-30T03:58:37.394Z,94670.6
2022-09-30T03:59:39.890Z,94668
2022-09-30T04:00:42.627Z,94666.1
2022-09-30T04:01:45.109Z,94674
2022-09-30T04:02:47.612Z,94666.5
2022-09-30T04:03:49.561Z,94669.1
2022-09-30T04:04:52.033Z,94672.7
2022-09-30T04:05:54.510Z,94672.5
2022-09-30T04:06:56.720Z,94680.4
2022-09-30T04:07:59.204Z,94679.6
2022-09-30T04:09:01.858Z,94685.1
2022-09-30T04:10:03.821Z,94682.3
2022-09-30T04:11:06.285Z,94687
2022-09-30T04:12:08.191Z,94688.4
2022-09-30T04:13:10.663Z,94687.7
2022-09-30T04:14:12.859Z,94686.8
2022-09-30T04:15:15.066Z,94683.5
2022-09-30T04:16:17.947Z,94684.6
2022-09-30T04:17:20.285Z,94684.5
2022-09-30T04:18:22.841Z,94686.9
2022-09-30T04:19:25.351Z,94684.8
2022-09-30T04:20:27.842Z,94689.4
2022-09-30T04:21:30.027Z,94690.6
2022-09-30T04:22:31.965Z,94692.3
2022-09-30T04:23:34.163Z,94694.9
2022-09-30T04:24:36.088Z,94694.5
2022-09-30T04:25:38.564Z,94695.2
2022-09-30T04:26:41.046Z,94695.6
2022-09-30T04:27:43.523Z,94692.2
2022-09-30T04:28:46.003Z,94699
2022-09-30T04:29:47.922Z,94699.4
2022-09-30T04:30:50.174Z,94701.1
2022-09-30T04:31:53.048Z,94700
2022-09-30T04:32:55.646Z,94704.3
2022-09-30T04:33:58.134Z,94703.6
2022-09-30T04:35:00.349Z,94707.8
2022-09-30T04:36:02.881Z,94712.3
2022-09-30T04:38:10.359Z,94714.4
2022-09-30T04:39:12.887Z,94716.8
2022-09-30T04:40:15.094Z,94720.1
2022-09-30T04:41:17.601Z,94716.7
2022-09-30T04:42:20.081Z,94718.3
2022-09-30T04:43:22.289Z,94715.9
2022-09-30T04:44:24.751Z,94721.1
2022-09-30T04:45:27.627Z,94721.2
2022-09-30T04:46:29.665Z,94718.8
2022-09-30T04:47:32.152Z,94717.7
2022-09-30T04:48:34.617Z,94718.5
2022-09-30T04:49:36.859Z,94718
2022-09-30T04:50:39.461Z,94721.5
2022-09-30T04:51:41.727Z,94720.7
2022-09-30T04:52:44.204Z,94722.1
2022-09-30T04:53:46.708Z,94721.8
2022-09-30T04:54:48.631Z,94722.8
2022-09-30T04:55:51.124Z,94729.4
2022-09-30T04:56:53.606Z,94725.3
2022-09-30T04:57:55.823Z,94729.6
2022-09-30T04:58:58.033Z,94730.8
2022-09-30T05:00:00.530Z,94732.5
2022-09-30T05:01:02.793Z,94732.6
2022-09-30T05:02:05.514Z,94731.8
2022-09-30T05:03:08.108Z,94728.7
2022-09-30T05:04:10.024Z,94727.9
2022-09-30T05:05:11.939Z,94730.1
2022-09-30T05:06:14.155Z,94728.7
2022-09-30T05:07:16.629Z,94727.7
2022-09-30T05:08:19.117Z,94725.1
2022-09-30T05:09:22.301Z,94729.1
2022-09-30T05:10:25.293Z,94725.6
2022-09-30T05:11:27.204Z,94723.1
2022-09-30T05:12:29.404Z,94726.9
2022-09-30T05:13:31.302Z,94721.9
2022-09-30T05:14:33.799Z,94728.6
2022-09-30T05:15:35.970Z,94727.9
2022-09-30T05:16:38.520Z,94731.4
2022-09-30T05:17:40.864Z,94730
2022-09-30T05:18:43.068Z,94732.6
2022-09-30T05:19:44.713Z,94733
2022-09-30T05:20:46.914Z,94737.2
2022-09-30T05:21:49.410Z,94736.4
2022-09-30T05:22:51.658Z,94736.5
2022-09-30T05:23:53.587Z,94735.2
2022-09-30T05:24:56.107Z,94737.8
2022-09-30T05:25:58.593Z,94738.4
2022-09-30T05:27:01.087Z,94735.4
2022-09-30T05:28:03.576Z,94731.6
2022-09-30T05:29:05.491Z,94734.1
2022-09-30T05:30:07.961Z,94739.3
2022-09-30T05:31:10.773Z,94743.9
2022-09-30T05:32:13.051Z,94742.8
2022-09-30T05:33:15.286Z,94746.7
2022-09-30T05:34:17.517Z,94746.4
2022-09-30T05:35:19.435Z,94745.8
2022-09-30T05:36:21.611Z,94751.4
2022-09-30T05:37:23.822Z,94748.9
2022-09-30T05:38:26.318Z,94745.7
2022-09-30T05:39:28.522Z,94748.8
2022-09-30T05:40:30.762Z,94750.4
2022-09-30T05:41:33.241Z,94754.3
2022-09-30T05:42:35.457Z,94756.6
2022-09-30T05:43:37.670Z,94758.9
2022-09-30T05:44:39.297Z,94759.5
2022-09-30T05:45:41.236Z,94757.5
2022-09-30T05:46:43.705Z,94764.1
2022-09-30T05:47:46.328Z,94770.1
2022-09-30T05:48:48.821Z,94773.8
2022-09-30T05:50:56.010Z,94770
2022-09-30T05:51:57.944Z,94771.4
2022-09-30T05:53:00.432Z,94773.4
2022-09-30T05:54:02.462Z,94772.2
2022-09-30T05:55:04.418Z,94773.8
2022-09-30T05:56:06.694Z,94779
2022-09-30T05:57:09.189Z,94780.6
2022-09-30T05:58:11.115Z,94779.2
2022-09-30T05:59:13.304Z,94786.7
2022-09-30T06:00:15.235Z,94790.9
2022-09-30T06:01:17.723Z,94792.7
2022-09-30T06:02:20.303Z,94793.6
2022-09-30T06:03:22.647Z,94794.9
2022-09-30T06:04:24.872Z,94795.4
2022-09-30T06:05:27.072Z,94796.6
2022-09-30T06:06:29.548Z,94796.4
2022-09-30T06:07:31.747Z,94796.8
2022-09-30T06:08:34.034Z,94798.8
2022-09-30T06:09:37.039Z,94796.1
2022-09-30T06:10:39.391Z,94795.3
2022-09-30T06:11:41.907Z,94796
2022-09-30T06:12:44.395Z,94799.6
2022-09-30T06:13:46.878Z,94797.5
2022-09-30T06:14:49.116Z,94800.2
2022-09-30T06:15:51.585Z,94802.6
2022-09-30T06:16:54.432Z,94804.7
2022-09-30T06:17:57.037Z,94806.8
2022-09-30T06:18:58.957Z,94808.5
2022-09-30T06:20:01.455Z,94807.4
2022-09-30T06:21:03.953Z,94805.9
2022-09-30T06:22:06.416Z,94810.5
2022-09-30T06:23:08.617Z,94810.8
2022-09-30T06:24:10.857Z,94812
2022-09-30T06:25:13.350Z,94809.1
2022-09-30T06:26:15.587Z,94812.1
2022-09-30T06:27:18.082Z,94809
2022-09-30T06:28:20.285Z,94807.1
2022-09-30T06:29:22.689Z,94807.1
2022-09-30T06:30:25.061Z,94806.3
2022-09-30T06:31:27.211Z,94805.9
2022-09-30T06:32:29.487Z,94803.3
2022-09-30T06:33:31.968Z,94808.1
2022-09-30T06:34:34.442Z,94807.9
2022-09-30T06:35:37.042Z,94807.2
2022-09-30T06:36:39.244Z,94801.4
2022-09-30T06:37:41.711Z,94799.3
2022-09-30T06:38:44.181Z,94803.7
2022-09-30T06:39:46.438Z,94802.2
2022-09-30T06:40:48.650Z,94799.4
2022-09-30T06:41:51.131Z,94801.3
2022-09-30T06:42:53.352Z,94808.7
2022-09-30T06:45:00.541Z,94811.3
2022-09-30T06:48:13.196Z,94821.7
2022-09-30T06:49:15.628Z,94818.2
2022-09-30T06:51:22.576Z,94828.2
2022-09-30T06:52:25.070Z,94826.4
2022-09-30T06:53:27.288Z,94825.9
2022-09-30T06:54:29.495Z,94832
2022-09-30T06:55:31.742Z,94834.2
2022-09-30T06:56:34.002Z,94827.9
2022-09-30T06:57:36.467Z,94827.7
2022-09-30T06:58:38.686Z,94833.5
2022-09-30T06:59:40.891Z,94829
2022-09-30T07:00:43.192Z,94828.2
2022-09-30T07:01:45.865Z,94829.7
2022-09-30T07:02:48.512Z,94829.2
2022-09-30T07:04:55.754Z,94839.7
2022-09-30T07:05:58.230Z,94840.1
2022-09-30T07:06:59.902Z,94842.8
2022-09-30T07:08:01.822Z,94845.5
2022-09-30T07:09:04.396Z,94846
2022-09-30T07:10:06.976Z,94845.5
2022-09-30T07:11:08.941Z,94845.2
2022-09-30T07:12:11.450Z,94843
2022-09-30T07:13:13.648Z,94844.3
2022-09-30T07:14:16.168Z,94847.1
2022-09-30T07:15:18.650Z,94849.4
2022-09-30T07:16:21.002Z,94849.2
2022-09-30T07:17:23.370Z,94853.1
2022-09-30T07:18:25.575Z,94853.3
2022-09-30T07:19:27.769Z,94856.6
2022-09-30T07:20:29.981Z,94857.3
2022-09-30T07:21:32.192Z,94855.9
2022-09-30T07:22:34.705Z,94855.4
2022-09-30T07:23:36.954Z,94858.4
2022-09-30T07:24:39.154Z,94858.3
2022-09-30T07:25:41.630Z,94857.9
2022-09-30T07:26:43.872Z,94856.1
2022-09-30T07:27:46.369Z,94854
2022-09-30T07:28:48.651Z,94854.8
2022-09-30T07:32:01.372Z,94850.2
2022-09-30T07:33:03.774Z,94851.4
2022-09-30T07:34:06.253Z,94847.9
2022-09-30T07:35:08.446Z,94850.5
2022-09-30T07:36:10.920Z,94846.2
2022-09-30T07:37:12.829Z,94849.7
2022-09-30T07:38:15.054Z,94845.4
2022-09-30T07:39:17.361Z,94846.7
2022-09-30T07:40:19.005Z,94843.5
2022-09-30T07:41:21.195Z,94845.2
2022-09-30T07:42:24.544Z,94844.5
2022-09-30T07:43:26.927Z,94839.9
2022-09-30T07:44:29.398Z,94844.5
2022-09-30T07:45:31.947Z,94842.3
2022-09-30T07:46:34.297Z,94844.2
2022-09-30T07:47:36.243Z,94835.5
2022-09-30T07:48:38.713Z,94845
2022-09-30T07:49:40.643Z,94846.3
2022-09-30T07:50:42.578Z,94849.6
2022-09-30T07:51:44.779Z,94848
2022-09-30T07:52:47.273Z,94848.7
2022-09-30T07:53:49.510Z,94853
2022-09-30T07:54:52.455Z,94852.8
2022-09-30T07:55:54.929Z,94854.9
2022-09-30T07:58:02.445Z,94856
2022-09-30T07:59:04.674Z,94859
2022-09-30T08:01:12.340Z,94865.2
2022-09-30T08:02:15.088Z,94870
2022-09-30T08:03:17.445Z,94867.5
2022-09-30T08:04:19.656Z,94870.5
2022-09-30T08:05:21.856Z,94874.8
2022-09-30T08:06:24.065Z,94878.9
2022-09-30T08:07:26.266Z,94878.8
2022-09-30T08:08:28.459Z,94879.8
2022-09-30T08:09:32.368Z,94881.1
2022-09-30T08:10:34.933Z,94879.4
2022-09-30T08:11:36.866Z,94878.9
2022-09-30T08:12:39.373Z,94881.1
2022-09-30T08:13:41.604Z,94881.8
2022-09-30T08:14:44.126Z,94882
2022-09-30T08:15:46.605Z,94884.3
2022-09-30T08:16:48.486Z,94884.5
2022-09-30T08:17:50.860Z,94883.4
2022-09-30T08:18:52.799Z,94886.5
2022-09-30T08:19:55.006Z,94881.9
2022-09-30T08:20:57.212Z,94881.2
2022-09-30T08:22:00.099Z,94879.9
2022-09-30T08:23:02.342Z,94880.9
2022-09-30T08:24:04.870Z,94879.7
2022-09-30T08:25:06.843Z,94877.9
2022-09-30T08:26:09.333Z,94884.4
2022-09-30T08:27:11.889Z,94882
2022-09-30T08:28:14.496Z,94887.4
2022-09-30T08:30:22.135Z,94884.6
2022-09-30T08:31:24.703Z,94879.2
2022-09-30T08:32:27.255Z,94883.9
2022-09-30T08:33:29.735Z,94882.3
2022-09-30T08:34:31.388Z,94887.3
2022-09-30T08:35:33.592Z,94892.8
2022-09-30T08:36:36.105Z,94893
2022-09-30T08:37:38.610Z,94892.1
2022-09-30T08:38:40.830Z,94892.7
2022-09-30T08:39:43.012Z,94897.8
2022-09-30T08:40:45.238Z,94893.7
2022-09-30T08:41:47.459Z,94898.3
2022-09-30T08:43:54.688Z,94895.7
2022-09-30T08:44:56.994Z,94898.3
2022-09-30T08:45:59.629Z,94893.5
2022-09-30T08:47:02.309Z,94899.8
2022-09-30T08:48:04.860Z,94903.2
2022-09-30T08:49:07.272Z,94900.5
2022-09-30T08:50:09.776Z,94898
2022-09-30T08:51:12.258Z,94899.8
2022-09-30T08:53:19.726Z,94898.7
2022-09-30T08:54:21.655Z,94899.4
2022-09-30T08:55:23.289Z,94904
2022-09-30T08:56:25.798Z,94904.5
2022-09-30T08:57:28.306Z,94907.4
2022-09-30T08:58:30.486Z,94908.9
2022-09-30T08:59:32.410Z,94909.9
2022-09-30T09:00:34.610Z,94912.9
2022-09-30T09:01:37.564Z,94906.8
2022-09-30T09:02:40.210Z,94909.8
2022-09-30T09:03:42.512Z,94914.3
2022-09-30T09:04:45.011Z,94908.1
2022-09-30T09:06:52.229Z,94917
2022-09-30T09:07:54.732Z,94917.1
2022-09-30T09:08:56.636Z,94921.5
2022-09-30T09:09:59.113Z,94923
2022-09-30T09:11:01.592Z,94924.8
2022-09-30T09:12:03.538Z,94925.4
2022-09-30T09:13:05.766Z,94932.1
2022-09-30T09:14:07.955Z,94928.5
2022-09-30T09:15:10.155Z,94929.2
2022-09-30T09:16:12.562Z,94933.8
2022-09-30T09:19:25.708Z,94940.1
2022-09-30T09:20:27.989Z,94940
2022-09-30T09:21:30.179Z,94937.1
2022-09-30T09:22:32.246Z,94941
2022-09-30T09:23:34.452Z,94942.1
2022-09-30T09:24:36.931Z,94944.6
2022-09-30T09:25:39.413Z,94943.2
2022-09-30T09:26:41.682Z,94944.9
2022-09-30T09:27:44.410Z,94954.1
2022-09-30T09:29:51.710Z,94958.4
2022-09-30T09:30:54.203Z,94952.9
2022-09-30T09:31:56.436Z,94947.7
2022-09-30T09:32:58.495Z,94945.5
2022-09-30T09:34:00.973Z,94947.3
2022-09-30T09:35:03.209Z,94943.9
2022-09-30T09:36:05.469Z,94946.8
2022-09-30T09:37:07.669Z,94941.8
2022-09-30T09:38:09.913Z,94940.5
2022-09-30T09:39:11.857Z,94942.5
2022-09-30T09:40:13.777Z,94941.9
2022-09-30T09:41:16.275Z,94944.7
2022-09-30T09:42:18.357Z,94944.3
2022-09-30T09:43:20.610Z,94944.8
2022-09-30T09:44:27.307Z,94944.4
2022-09-30T09:45:29.529Z,94941.4
2022-09-30T09:46:32.122Z,94945
2022-09-30T09:47:33.764Z,94945
2022-09-30T09:48:35.951Z,94941.5
2022-09-30T09:49:41.013Z,94941.6
2022-09-30T09:50:44.066Z,94944.4
2022-09-30T09:51:46.294Z,94941.1
2022-09-30T09:52:48.505Z,94933.9
2022-09-30T09:53:50.725Z,94938.3
2022-09-30T09:54:53.203Z,94936
2022-09-30T09:55:55.688Z,94934.6
2022-09-30T09:56:57.607Z,94931
2022-09-30T09:57:59.806Z,94932.1
2022-09-30T09:59:01.875Z,94932.2
2022-09-30T10:00:04.405Z,94932.1
2022-09-30T10:02:11.987Z,94936
2022-09-30T10:03:14.537Z,94936.3
2022-09-30T10:04:17.031Z,94941.6
2022-09-30T10:05:19.227Z,94946.2
2022-09-30T10:06:21.759Z,94944.8
2022-09-30T10:07:24.244Z,94947.1
2022-09-30T10:08:26.712Z,94956
2022-09-30T10:09:29.212Z,94946.6
2022-09-30T10:10:31.402Z,94956.1
2022-09-30T10:11:33.875Z,94960.3
2022-09-30T10:12:36.346Z,94959.8
2022-09-30T10:13:38.824Z,94966
2022-09-30T10:14:41.315Z,94969
2022-09-30T10:15:43.536Z,94969.3
2022-09-30T10:16:45.492Z,94966.1
2022-09-30T10:17:47.970Z,94970
2022-09-30T10:18:50.443Z,94963.4
2022-09-30T10:19:52.369Z,94964.6
2022-09-30T10:20:54.384Z,94962.2
2022-09-30T10:21:58.943Z,94959.5
2022-09-30T10:23:01.437Z,94961.3
2022-09-30T10:24:03.421Z,94961.4
2022-09-30T10:25:05.906Z,94964.4
2022-09-30T10:26:08.119Z,94969.4
2022-09-30T10:27:10.314Z,94960.8
2022-09-30T10:28:13.085Z,94967.5
2022-09-30T10:29:15.460Z,94959.8
2022-09-30T10:30:18.045Z,94963.8
2022-09-30T10:31:20.296Z,94957.9
2022-09-30T10:32:23.009Z,94960.9
2022-09-30T10:33:25.514Z,94965.6
2022-09-30T10:34:27.728Z,94960.3
2022-09-30T10:35:30.210Z,94964.6
2022-09-30T10:36:32.744Z,94967.5
2022-09-30T10:37:35.019Z,94959
2022-09-30T10:38:37.553Z,94961.2
2022-09-30T10:39:38.925Z,94965.5
2022-09-30T10:40:40.859Z,94965.2
2022-09-30T10:41:43.076Z,94967.5
2022-09-30T10:42:44.991Z,94971.6
2022-09-30T10:43:47.470Z,94969.5
2022-09-30T10:44:49.428Z,94974.4
2022-09-30T10:46:57.353Z,94974.6
2022-09-30T10:47:59.660Z,94976.7
2022-09-30T10:49:01.852Z,94975.3
2022-09-30T10:50:03.500Z,94977.4
2022-09-30T10:51:05.703Z,94980.4
2022-09-30T10:52:08.174Z,94977.9
2022-09-30T10:53:10.666Z,94980
2022-09-30T10:54:12.892Z,94977.9
2022-09-30T10:56:20.142Z,94977.5
2022-09-30T10:57:22.056Z,94977.7
2022-09-30T10:58:24.254Z,94982.5
2022-09-30T10:59:26.733Z,94984.1
2022-09-30T11:00:28.957Z,94985.9
2022-09-30T11:01:32.774Z,94989.6
2022-09-30T11:02:35.148Z,94985.2
2022-09-30T11:03:37.731Z,94984.7
2022-09-30T11:04:40.366Z,94985.8
2022-09-30T11:05:42.290Z,94982.5
2022-09-30T11:06:44.773Z,94982.6
2022-09-30T11:07:46.989Z,94982
2022-09-30T11:08:49.466Z,94981.6
2022-09-30T11:09:51.996Z,94980.5
2022-09-30T11:10:54.472Z,94984.2
2022-09-30T11:11:57.079Z,94986.8
2022-09-30T11:12:59.561Z,94986.8
2022-09-30T11:14:01.767Z,94993.5
2022-09-30T11:15:03.396Z,94995.3
2022-09-30T11:16:06.182Z,94999.5
2022-09-30T11:17:08.257Z,95001.2
2022-09-30T11:18:10.815Z,94995.8
2022-09-30T11:19:13.043Z,95000.6
2022-09-30T11:20:15.367Z,94996.3
2022-09-30T11:21:17.838Z,95002.1
2022-09-30T11:22:20.323Z,95004.5
2022-09-30T11:23:22.813Z,95004.3
2022-09-30T11:24:25.343Z,95006.4
2022-09-30T11:25:27.844Z,95013.2
2022-09-30T11:26:31.192Z,95015.7
2022-09-30T11:27:33.470Z,95015
2022-09-30T11:28:35.700Z,95017.2
2022-09-30T11:29:37.909Z,95014.5
2022-09-30T11:30:40.128Z,95014
2022-09-30T11:31:42.920Z,95009.8
2022-09-30T11:32:45.518Z,95008.7
2022-09-30T11:33:48.108Z,95005.2
2022-09-30T11:34:50.663Z,95009.5
2022-09-30T11:35:52.886Z,95006.8
2022-09-30T11:36:54.816Z,95005.4
2022-09-30T11:37:57.286Z,95006.6
2022-09-30T11:38:59.785Z,95006.6
2022-09-30T11:40:02.021Z,95004.2
2022-09-30T11:41:04.251Z,95003.7
2022-09-30T11:42:06.470Z,95003.2
2022-09-30T11:43:09.930Z,95003.9
2022-09-30T11:44:12.123Z,95003.1
2022-09-30T11:45:14.043Z,95004.2
2022-09-30T11:46:16.592Z,95002.1
2022-09-30T11:47:19.034Z,95002.8
2022-09-30T11:48:21.227Z,95004
2022-09-30T11:49:23.764Z,95001.7
2022-09-30T11:50:25.983Z,95002.6
2022-09-30T11:51:27.611Z,94999.7
2022-09-30T11:52:30.100Z,94997.3
2022-09-30T11:53:32.575Z,94995.6
2022-09-30T11:54:35.053Z,94992.5
2022-09-30T11:55:37.626Z,94994.3
2022-09-30T11:56:39.582Z,94997.2
2022-09-30T11:57:41.778Z,94997.5
2022-09-30T11:58:44.381Z,95003.3
2022-09-30T11:59:46.580Z,95006.1
2022-09-30T12:00:49.059Z,95007.5
2022-09-30T12:01:51.619Z,95014.2
2022-09-30T12:02:54.484Z,95013.3
2022-09-30T12:03:57.040Z,95012.7
2022-09-30T12:04:59.344Z,95008.1
2022-09-30T12:06:01.819Z,95000.1
2022-09-30T12:07:04.043Z,95003.3
2022-09-30T12:08:06.556Z,95008.1
2022-09-30T12:09:08.763Z,95006.9
2022-09-30T12:10:10.959Z,95008.1
2022-09-30T12:11:13.564Z,95008.8
2022-09-30T12:13:21.061Z,95006
2022-09-30T12:14:23.563Z,95002.1
2022-09-30T12:15:25.760Z,95006.7
2022-09-30T12:16:29.900Z,95006.2
2022-09-30T12:17:33.145Z,95008.6
2022-09-30T12:18:35.364Z,95002.8
2022-09-30T12:19:37.837Z,95004
2022-09-30T12:20:40.357Z,95005.3
2022-09-30T12:21:42.557Z,95000.9
2022-09-30T12:22:44.789Z,95001.6
2022-09-30T12:23:47.029Z,94997.5
2022-09-30T12:24:49.262Z,94998
2022-09-30T12:25:51.461Z,94996.4
2022-09-30T12:26:53.125Z,94995.9
2022-09-30T12:27:55.347Z,94997.5
2022-09-30T12:30:03.019Z,94990
2022-09-30T12:31:05.227Z,94991
2022-09-30T12:32:07.875Z,94989.5
2022-09-30T12:33:10.113Z,94992.1
2022-09-30T12:34:12.300Z,94990.5
2022-09-30T12:35:14.780Z,94992
2022-09-30T12:36:17.342Z,94996.2
2022-09-30T12:37:19.819Z,94998.3
2022-09-30T12:38:22.000Z,95003.2
2022-09-30T12:39:24.477Z,95003.7
2022-09-30T12:40:26.961Z,95000.4
2022-09-30T12:41:28.336Z,94998
2022-09-30T12:42:30.829Z,94998.7
2022-09-30T12:43:33.068Z,94998.7
2022-09-30T12:44:35.585Z,94995.8
2022-09-30T12:45:38.485Z,94995.5
2022-09-30T12:46:41.024Z,94994.4
2022-09-30T12:47:43.233Z,94994.5
2022-09-30T12:48:45.446Z,94993.8
2022-09-30T12:49:47.955Z,94996
2022-09-30T12:50:49.876Z,94998
2022-09-30T12:51:52.420Z,94995.2
2022-09-30T12:52:54.605Z,94997.1
2022-09-30T12:53:57.091Z,94994.8
2022-09-30T12:54:59.563Z,94999.4
2022-09-30T12:56:02.073Z,94997.8
2022-09-30T12:57:04.070Z,94996.4
2022-09-30T12:58:06.114Z,94999.9
2022-09-30T12:59:08.092Z,95003.2
2022-09-30T13:00:10.037Z,94999
2022-09-30T13:01:12.696Z,95002.6
2022-09-30T13:02:15.733Z,95000.2
2022-09-30T13:03:18.060Z,94998.4
2022-09-30T13:04:20.278Z,95003.6